sensor_id;sensor_type;location;lat;lon;timestamp;P1;durP1;ratioP1;P2;durP2;ratioP2
18983;SDS011;9626;52.552;13.436;2024-03-06T00:02:11;20.07;;;13.40;;
18983;SDS011;9626;52.552;13.436;2024-03-06T00:04:37;20.67;;;14.60;;
18983;SDS011;9626;52.552;13.436;2024-03-06T00:07:04;21.43;;;14.17;;
18983;SDS011;9626;52.552;13.436;2024-03-06T00:09:32;22.37;;;13.47;;
18983;SDS011;9626;52.552;13.436;2024-03-06T00:11:59;22.77;;;14.43;;
18983;SDS011;9626;52.552;13.436;2024-03-06T00:14:25;24.27;;;14.83;;
18983;SDS011;9626;52.552;13.436;2024-03-06T00:16:51;24.97;;;14.50;;
18983;SDS011;9626;52.552;13.436;2024-03-06T00:19:17;24.03;;;14.37;;
18983;SDS011;9626;52.552;13.436;2024-03-06T00:21:44;26.43;;;14.87;;
18983;SDS011;9626;52.552;13.436;2024-03-06T00:24:14;25.53;;;14.43;;
18983;SDS011;9626;52.552;13.436;2024-03-06T00:26:41;18.10;;;13.17;;
18983;SDS011;9626;52.552;13.436;2024-03-06T00:29:10;26.70;;;14.27;;
18983;SDS011;9626;52.552;13.436;2024-03-06T00:31:37;21.50;;;13.90;;
18983;SDS011;9626;52.552;13.436;2024-03-06T00:34:08;20.10;;;13.23;;
18983;SDS011;9626;52.552;13.436;2024-03-06T00:36:34;20.90;;;13.50;;
18983;SDS011;9626;52.552;13.436;2024-03-06T00:39:00;19.33;;;13.13;;
18983;SDS011;9626;52.552;13.436;2024-03-06T00:41:30;22.03;;;13.63;;
18983;SDS011;9626;52.552;13.436;2024-03-06T00:43:56;21.83;;;13.70;;
18983;SDS011;9626;52.552;13.436;2024-03-06T00:46:22;20.40;;;13.47;;
18983;SDS011;9626;52.552;13.436;2024-03-06T00:48:49;18.63;;;12.97;;
18983;SDS011;9626;52.552;13.436;2024-03-06T00:51:15;23.73;;;13.77;;
18983;SDS011;9626;52.552;13.436;2024-03-06T00:53:41;22.67;;;14.07;;
18983;SDS011;9626;52.552;13.436;2024-03-06T00:56:07;25.27;;;14.67;;
18983;SDS011;9626;52.552;13.436;2024-03-06T00:58:33;21.40;;;14.00;;
18983;SDS011;9626;52.552;13.436;2024-03-06T01:00:59;25.20;;;13.43;;
18983;SDS011;9626;52.552;13.436;2024-03-06T01:03:25;19.83;;;13.37;;
18983;SDS011;9626;52.552;13.436;2024-03-06T01:05:51;20.23;;;13.33;;
18983;SDS011;9626;52.552;13.436;2024-03-06T01:08:23;19.37;;;12.27;;
18983;SDS011;9626;52.552;13.436;2024-03-06T01:10:53;21.30;;;12.70;;
18983;SDS011;9626;52.552;13.436;2024-03-06T01:13:19;18.87;;;12.43;;
18983;SDS011;9626;52.552;13.436;2024-03-06T01:15:46;23.50;;;12.63;;
18983;SDS011;9626;52.552;13.436;2024-03-06T01:18:12;18.47;;;12.33;;
18983;SDS011;9626;52.552;13.436;2024-03-06T01:20:38;21.73;;;12.67;;
18983;SDS011;9626;52.552;13.436;2024-03-06T01:23:05;18.33;;;11.23;;
18983;SDS011;9626;52.552;13.436;2024-03-06T01:25:31;19.70;;;12.70;;
18983;SDS011;9626;52.552;13.436;2024-03-06T01:27:57;21.73;;;13.20;;
18983;SDS011;9626;52.552;13.436;2024-03-06T01:30:23;22.10;;;12.70;;
18983;SDS011;9626;52.552;13.436;2024-03-06T01:32:49;17.83;;;12.23;;
18983;SDS011;9626;52.552;13.436;2024-03-06T01:35:15;22.07;;;12.47;;
18983;SDS011;9626;52.552;13.436;2024-03-06T01:37:42;19.43;;;11.20;;
18983;SDS011;9626;52.552;13.436;2024-03-06T01:40:08;21.53;;;12.60;;
18983;SDS011;9626;52.552;13.436;2024-03-06T01:42:34;18.90;;;11.50;;
18983;SDS011;9626;52.552;13.436;2024-03-06T01:45:01;14.33;;;10.63;;
18983;SDS011;9626;52.552;13.436;2024-03-06T01:47:28;19.97;;;11.03;;
18983;SDS011;9626;52.552;13.436;2024-03-06T01:49:54;17.57;;;11.03;;
18983;SDS011;9626;52.552;13.436;2024-03-06T01:52:20;16.90;;;11.47;;
18983;SDS011;9626;52.552;13.436;2024-03-06T01:54:47;18.83;;;11.53;;
18983;SDS011;9626;52.552;13.436;2024-03-06T01:57:15;16.73;;;11.37;;
18983;SDS011;9626;52.552;13.436;2024-03-06T01:59:42;16.70;;;11.37;;
18983;SDS011;9626;52.552;13.436;2024-03-06T02:02:09;16.83;;;11.03;;
18983;SDS011;9626;52.552;13.436;2024-03-06T02:04:39;17.43;;;11.20;;
18983;SDS011;9626;52.552;13.436;2024-03-06T02:07:08;17.13;;;10.90;;
18983;SDS011;9626;52.552;13.436;2024-03-06T02:09:36;17.80;;;10.50;;
18983;SDS011;9626;52.552;13.436;2024-03-06T02:12:03;16.27;;;11.13;;
18983;SDS011;9626;52.552;13.436;2024-03-06T02:14:31;16.20;;;10.17;;
18983;SDS011;9626;52.552;13.436;2024-03-06T02:16:57;17.27;;;11.43;;
18983;SDS011;9626;52.552;13.436;2024-03-06T02:19:23;17.40;;;11.00;;
18983;SDS011;9626;52.552;13.436;2024-03-06T02:21:49;19.37;;;11.07;;
18983;SDS011;9626;52.552;13.436;2024-03-06T02:24:15;15.73;;;10.80;;
18983;SDS011;9626;52.552;13.436;2024-03-06T02:26:41;18.03;;;11.40;;
18983;SDS011;9626;52.552;13.436;2024-03-06T02:29:08;16.53;;;11.13;;
18983;SDS011;9626;52.552;13.436;2024-03-06T02:31:35;19.20;;;11.30;;
18983;SDS011;9626;52.552;13.436;2024-03-06T02:34:01;18.10;;;11.07;;
18983;SDS011;9626;52.552;13.436;2024-03-06T02:36:31;15.90;;;10.53;;
18983;SDS011;9626;52.552;13.436;2024-03-06T02:38:58;16.10;;;11.07;;
18983;SDS011;9626;52.552;13.436;2024-03-06T02:41:23;16.50;;;10.93;;
18983;SDS011;9626;52.552;13.436;2024-03-06T02:43:49;16.53;;;11.70;;
18983;SDS011;9626;52.552;13.436;2024-03-06T02:46:17;15.73;;;10.33;;
18983;SDS011;9626;52.552;13.436;2024-03-06T02:48:43;16.50;;;10.83;;
18983;SDS011;9626;52.552;13.436;2024-03-06T02:51:10;15.63;;;10.33;;
18983;SDS011;9626;52.552;13.436;2024-03-06T02:53:36;24.30;;;11.67;;
18983;SDS011;9626;52.552;13.436;2024-03-06T02:56:02;18.30;;;11.43;;
18983;SDS011;9626;52.552;13.436;2024-03-06T02:58:31;24.30;;;12.60;;
18983;SDS011;9626;52.552;13.436;2024-03-06T03:00:57;16.40;;;10.70;;
18983;SDS011;9626;52.552;13.436;2024-03-06T03:03:24;16.70;;;11.30;;
18983;SDS011;9626;52.552;13.436;2024-03-06T03:05:50;16.97;;;11.17;;
18983;SDS011;9626;52.552;13.436;2024-03-06T03:08:16;17.73;;;11.47;;
18983;SDS011;9626;52.552;13.436;2024-03-06T03:10:42;17.57;;;12.07;;
18983;SDS011;9626;52.552;13.436;2024-03-06T03:13:10;16.57;;;11.17;;
18983;SDS011;9626;52.552;13.436;2024-03-06T03:15:36;17.20;;;11.63;;
18983;SDS011;9626;52.552;13.436;2024-03-06T03:18:02;17.43;;;10.50;;
18983;SDS011;9626;52.552;13.436;2024-03-06T03:20:28;15.57;;;10.60;;
18983;SDS011;9626;52.552;13.436;2024-03-06T03:22:54;16.73;;;10.90;;
18983;SDS011;9626;52.552;13.436;2024-03-06T03:25:20;16.67;;;11.60;;
18983;SDS011;9626;52.552;13.436;2024-03-06T03:27:47;16.90;;;11.50;;
18983;SDS011;9626;52.552;13.436;2024-03-06T03:30:13;16.73;;;11.13;;
18983;SDS011;9626;52.552;13.436;2024-03-06T03:32:41;21.03;;;11.57;;
18983;SDS011;9626;52.552;13.436;2024-03-06T03:35:07;14.33;;;10.53;;
18983;SDS011;9626;52.552;13.436;2024-03-06T03:37:34;16.87;;;11.13;;
18983;SDS011;9626;52.552;13.436;2024-03-06T03:40:00;20.00;;;11.70;;
18983;SDS011;9626;52.552;13.436;2024-03-06T03:42:26;20.80;;;12.13;;
18983;SDS011;9626;52.552;13.436;2024-03-06T03:44:52;19.90;;;12.70;;
18983;SDS011;9626;52.552;13.436;2024-03-06T03:47:18;19.70;;;12.47;;
18983;SDS011;9626;52.552;13.436;2024-03-06T03:49:44;18.67;;;12.03;;
18983;SDS011;9626;52.552;13.436;2024-03-06T03:52:10;21.30;;;12.87;;
18983;SDS011;9626;52.552;13.436;2024-03-06T03:54:37;19.13;;;12.43;;
18983;SDS011;9626;52.552;13.436;2024-03-06T03:57:03;20.27;;;11.80;;
18983;SDS011;9626;52.552;13.436;2024-03-06T03:59:30;20.23;;;12.40;;
18983;SDS011;9626;52.552;13.436;2024-03-06T04:01:57;17.90;;;11.73;;
18983;SDS011;9626;52.552;13.436;2024-03-06T04:04:23;19.00;;;12.40;;
18983;SDS011;9626;52.552;13.436;2024-03-06T04:06:49;18.30;;;11.87;;
18983;SDS011;9626;52.552;13.436;2024-03-06T04:09:15;19.70;;;12.10;;
18983;SDS011;9626;52.552;13.436;2024-03-06T04:11:41;21.27;;;12.40;;
18983;SDS011;9626;52.552;13.436;2024-03-06T04:14:07;19.20;;;11.80;;
18983;SDS011;9626;52.552;13.436;2024-03-06T04:16:33;19.33;;;11.93;;
18983;SDS011;9626;52.552;13.436;2024-03-06T04:19:00;17.43;;;11.60;;
18983;SDS011;9626;52.552;13.436;2024-03-06T04:21:26;19.73;;;11.80;;
18983;SDS011;9626;52.552;13.436;2024-03-06T04:23:52;17.13;;;11.27;;
18983;SDS011;9626;52.552;13.436;2024-03-06T04:26:19;21.87;;;11.80;;
18983;SDS011;9626;52.552;13.436;2024-03-06T04:28:46;21.40;;;12.83;;
18983;SDS011;9626;52.552;13.436;2024-03-06T04:31:12;24.07;;;13.60;;
18983;SDS011;9626;52.552;13.436;2024-03-06T04:33:38;22.00;;;13.20;;
18983;SDS011;9626;52.552;13.436;2024-03-06T04:36:07;23.27;;;14.03;;
18983;SDS011;9626;52.552;13.436;2024-03-06T04:38:34;20.70;;;12.60;;
18983;SDS011;9626;52.552;13.436;2024-03-06T04:41:00;22.70;;;13.00;;
18983;SDS011;9626;52.552;13.436;2024-03-06T04:43:26;23.60;;;13.47;;
18983;SDS011;9626;52.552;13.436;2024-03-06T04:45:52;20.47;;;12.83;;
18983;SDS011;9626;52.552;13.436;2024-03-06T04:48:18;22.37;;;13.17;;
18983;SDS011;9626;52.552;13.436;2024-03-06T04:50:44;20.70;;;12.50;;
18983;SDS011;9626;52.552;13.436;2024-03-06T04:53:10;23.27;;;13.13;;
18983;SDS011;9626;52.552;13.436;2024-03-06T04:55:37;19.20;;;12.70;;
18983;SDS011;9626;52.552;13.436;2024-03-06T04:58:03;20.77;;;12.87;;
18983;SDS011;9626;52.552;13.436;2024-03-06T05:00:30;20.10;;;12.33;;
18983;SDS011;9626;52.552;13.436;2024-03-06T05:02:56;22.00;;;13.03;;
18983;SDS011;9626;52.552;13.436;2024-03-06T05:05:22;25.10;;;14.90;;
18983;SDS011;9626;52.552;13.436;2024-03-06T05:07:48;21.10;;;12.90;;
18983;SDS011;9626;52.552;13.436;2024-03-06T05:10:14;21.60;;;13.87;;
18983;SDS011;9626;52.552;13.436;2024-03-06T05:12:41;25.97;;;15.27;;
18983;SDS011;9626;52.552;13.436;2024-03-06T05:15:08;21.43;;;13.20;;
18983;SDS011;9626;52.552;13.436;2024-03-06T05:17:36;21.87;;;13.10;;
18983;SDS011;9626;52.552;13.436;2024-03-06T05:20:03;24.77;;;13.97;;
18983;SDS011;9626;52.552;13.436;2024-03-06T05:22:29;21.53;;;13.47;;
18983;SDS011;9626;52.552;13.436;2024-03-06T05:24:56;21.20;;;13.10;;
18983;SDS011;9626;52.552;13.436;2024-03-06T05:27:24;20.97;;;12.10;;
18983;SDS011;9626;52.552;13.436;2024-03-06T05:29:52;24.60;;;13.10;;
18983;SDS011;9626;52.552;13.436;2024-03-06T05:32:18;23.70;;;12.93;;
18983;SDS011;9626;52.552;13.436;2024-03-06T05:34:45;19.87;;;13.33;;
18983;SDS011;9626;52.552;13.436;2024-03-06T05:37:11;21.13;;;12.47;;
18983;SDS011;9626;52.552;13.436;2024-03-06T05:39:38;22.30;;;14.10;;
18983;SDS011;9626;52.552;13.436;2024-03-06T05:42:04;21.07;;;12.93;;
18983;SDS011;9626;52.552;13.436;2024-03-06T05:44:31;23.73;;;13.83;;
18983;SDS011;9626;52.552;13.436;2024-03-06T05:46:57;22.87;;;14.07;;
18983;SDS011;9626;52.552;13.436;2024-03-06T05:49:24;25.97;;;14.27;;
18983;SDS011;9626;52.552;13.436;2024-03-06T05:51:51;19.63;;;12.37;;
18983;SDS011;9626;52.552;13.436;2024-03-06T05:54:17;23.53;;;12.70;;
18983;SDS011;9626;52.552;13.436;2024-03-06T05:56:44;28.37;;;13.53;;
18983;SDS011;9626;52.552;13.436;2024-03-06T05:59:10;28.50;;;15.03;;
18983;SDS011;9626;52.552;13.436;2024-03-06T06:01:37;29.73;;;14.97;;
18983;SDS011;9626;52.552;13.436;2024-03-06T06:04:03;30.10;;;14.37;;
18983;SDS011;9626;52.552;13.436;2024-03-06T06:06:29;32.97;;;14.70;;
18983;SDS011;9626;52.552;13.436;2024-03-06T06:08:55;29.13;;;13.73;;
18983;SDS011;9626;52.552;13.436;2024-03-06T06:11:21;29.80;;;15.77;;
18983;SDS011;9626;52.552;13.436;2024-03-06T06:13:47;30.83;;;14.23;;
18983;SDS011;9626;52.552;13.436;2024-03-06T06:16:13;26.00;;;14.07;;
18983;SDS011;9626;52.552;13.436;2024-03-06T06:18:42;32.43;;;14.57;;
18983;SDS011;9626;52.552;13.436;2024-03-06T06:21:08;24.23;;;13.20;;
18983;SDS011;9626;52.552;13.436;2024-03-06T06:23:34;33.33;;;14.27;;
18983;SDS011;9626;52.552;13.436;2024-03-06T06:26:01;25.33;;;14.47;;
18983;SDS011;9626;52.552;13.436;2024-03-06T06:28:27;25.53;;;14.60;;
18983;SDS011;9626;52.552;13.436;2024-03-06T06:30:53;24.77;;;14.43;;
18983;SDS011;9626;52.552;13.436;2024-03-06T06:33:19;26.50;;;13.97;;
18983;SDS011;9626;52.552;13.436;2024-03-06T06:35:46;23.30;;;14.47;;
18983;SDS011;9626;52.552;13.436;2024-03-06T06:38:13;27.03;;;14.77;;
18983;SDS011;9626;52.552;13.436;2024-03-06T06:40:39;21.83;;;13.53;;
18983;SDS011;9626;52.552;13.436;2024-03-06T06:43:08;26.60;;;15.50;;
18983;SDS011;9626;52.552;13.436;2024-03-06T06:45:34;23.67;;;13.47;;
18983;SDS011;9626;52.552;13.436;2024-03-06T06:48:00;27.27;;;14.00;;
18983;SDS011;9626;52.552;13.436;2024-03-06T06:50:26;30.00;;;15.17;;
18983;SDS011;9626;52.552;13.436;2024-03-06T06:52:52;23.50;;;14.70;;
18983;SDS011;9626;52.552;13.436;2024-03-06T06:55:18;29.37;;;14.63;;
18983;SDS011;9626;52.552;13.436;2024-03-06T06:57:49;26.23;;;15.47;;
18983;SDS011;9626;52.552;13.436;2024-03-06T07:00:15;23.40;;;14.07;;
18983;SDS011;9626;52.552;13.436;2024-03-06T07:02:44;23.50;;;14.47;;
18983;SDS011;9626;52.552;13.436;2024-03-06T07:05:11;30.57;;;15.00;;
18983;SDS011;9626;52.552;13.436;2024-03-06T07:07:37;27.33;;;13.97;;
18983;SDS011;9626;52.552;13.436;2024-03-06T07:10:06;29.57;;;15.80;;
18983;SDS011;9626;52.552;13.436;2024-03-06T07:12:35;26.97;;;14.50;;
18983;SDS011;9626;52.552;13.436;2024-03-06T07:15:01;22.43;;;14.33;;
18983;SDS011;9626;52.552;13.436;2024-03-06T07:17:30;27.47;;;14.40;;
18983;SDS011;9626;52.552;13.436;2024-03-06T07:19:56;21.07;;;13.93;;
18983;SDS011;9626;52.552;13.436;2024-03-06T07:22:22;26.50;;;14.67;;
18983;SDS011;9626;52.552;13.436;2024-03-06T07:24:49;24.60;;;14.60;;
18983;SDS011;9626;52.552;13.436;2024-03-06T07:27:15;24.03;;;15.60;;
18983;SDS011;9626;52.552;13.436;2024-03-06T07:29:41;21.70;;;14.57;;
18983;SDS011;9626;52.552;13.436;2024-03-06T07:32:07;24.57;;;14.53;;
18983;SDS011;9626;52.552;13.436;2024-03-06T07:34:33;19.90;;;13.63;;
18983;SDS011;9626;52.552;13.436;2024-03-06T07:36:59;22.67;;;13.47;;
18983;SDS011;9626;52.552;13.436;2024-03-06T07:39:25;20.07;;;13.83;;
18983;SDS011;9626;52.552;13.436;2024-03-06T07:41:51;21.57;;;13.77;;
18983;SDS011;9626;52.552;13.436;2024-03-06T07:44:17;18.90;;;13.23;;
18983;SDS011;9626;52.552;13.436;2024-03-06T07:46:43;19.97;;;12.77;;
18983;SDS011;9626;52.552;13.436;2024-03-06T07:49:09;18.10;;;12.00;;
18983;SDS011;9626;52.552;13.436;2024-03-06T07:51:35;20.20;;;12.83;;
18983;SDS011;9626;52.552;13.436;2024-03-06T07:54:01;16.87;;;11.87;;
18983;SDS011;9626;52.552;13.436;2024-03-06T07:56:29;16.70;;;11.97;;
18983;SDS011;9626;52.552;13.436;2024-03-06T07:58:55;16.57;;;11.40;;
18983;SDS011;9626;52.552;13.436;2024-03-06T08:01:22;16.40;;;11.70;;
18983;SDS011;9626;52.552;13.436;2024-03-06T08:03:48;18.97;;;12.53;;
18983;SDS011;9626;52.552;13.436;2024-03-06T08:06:14;15.83;;;11.83;;
18983;SDS011;9626;52.552;13.436;2024-03-06T08:08:41;17.37;;;12.37;;
18983;SDS011;9626;52.552;13.436;2024-03-06T08:11:12;16.13;;;11.23;;
18983;SDS011;9626;52.552;13.436;2024-03-06T08:13:39;15.87;;;11.50;;
18983;SDS011;9626;52.552;13.436;2024-03-06T08:16:06;17.20;;;11.63;;
18983;SDS011;9626;52.552;13.436;2024-03-06T08:18:32;16.83;;;11.90;;
18983;SDS011;9626;52.552;13.436;2024-03-06T08:20:59;16.53;;;12.27;;
18983;SDS011;9626;52.552;13.436;2024-03-06T08:23:25;16.73;;;10.63;;
18983;SDS011;9626;52.552;13.436;2024-03-06T08:25:51;12.77;;;10.37;;
18983;SDS011;9626;52.552;13.436;2024-03-06T08:28:18;15.23;;;10.83;;
18983;SDS011;9626;52.552;13.436;2024-03-06T08:30:44;15.17;;;11.00;;
18983;SDS011;9626;52.552;13.436;2024-03-06T08:33:10;13.30;;;9.93;;
18983;SDS011;9626;52.552;13.436;2024-03-06T08:35:37;15.57;;;10.97;;
18983;SDS011;9626;52.552;13.436;2024-03-06T08:38:03;15.97;;;11.20;;
18983;SDS011;9626;52.552;13.436;2024-03-06T08:40:29;13.07;;;10.80;;
18983;SDS011;9626;52.552;13.436;2024-03-06T08:42:55;12.00;;;10.67;;
18983;SDS011;9626;52.552;13.436;2024-03-06T08:45:22;11.10;;;9.27;;
18983;SDS011;9626;52.552;13.436;2024-03-06T08:47:48;16.87;;;10.37;;
18983;SDS011;9626;52.552;13.436;2024-03-06T08:50:15;12.93;;;10.20;;
18983;SDS011;9626;52.552;13.436;2024-03-06T08:52:41;14.83;;;10.47;;
18983;SDS011;9626;52.552;13.436;2024-03-06T08:55:08;12.73;;;10.30;;
18983;SDS011;9626;52.552;13.436;2024-03-06T08:57:34;11.33;;;9.27;;
18983;SDS011;9626;52.552;13.436;2024-03-06T09:00:01;12.53;;;10.33;;
18983;SDS011;9626;52.552;13.436;2024-03-06T09:02:28;15.57;;;10.00;;
18983;SDS011;9626;52.552;13.436;2024-03-06T09:04:55;14.47;;;9.50;;
18983;SDS011;9626;52.552;13.436;2024-03-06T09:07:21;11.00;;;9.33;;
18983;SDS011;9626;52.552;13.436;2024-03-06T09:09:49;11.50;;;9.13;;
18983;SDS011;9626;52.552;13.436;2024-03-06T09:12:17;10.67;;;8.67;;
18983;SDS011;9626;52.552;13.436;2024-03-06T09:14:45;10.33;;;8.23;;
18983;SDS011;9626;52.552;13.436;2024-03-06T09:17:11;8.97;;;7.53;;
18983;SDS011;9626;52.552;13.436;2024-03-06T09:19:41;8.33;;;7.47;;
18983;SDS011;9626;52.552;13.436;2024-03-06T09:22:07;9.00;;;7.67;;
18983;SDS011;9626;52.552;13.436;2024-03-06T09:24:33;8.80;;;7.50;;
18983;SDS011;9626;52.552;13.436;2024-03-06T09:27:04;9.20;;;8.20;;
18983;SDS011;9626;52.552;13.436;2024-03-06T09:29:30;9.90;;;7.57;;
18983;SDS011;9626;52.552;13.436;2024-03-06T09:31:56;10.13;;;7.23;;
18983;SDS011;9626;52.552;13.436;2024-03-06T09:34:22;9.60;;;7.57;;
18983;SDS011;9626;52.552;13.436;2024-03-06T09:36:49;8.63;;;6.60;;
18983;SDS011;9626;52.552;13.436;2024-03-06T09:39:16;9.17;;;7.23;;
18983;SDS011;9626;52.552;13.436;2024-03-06T09:41:45;12.67;;;9.40;;
18983;SDS011;9626;52.552;13.436;2024-03-06T09:44:12;11.47;;;8.83;;
18983;SDS011;9626;52.552;13.436;2024-03-06T09:46:43;27.37;;;9.20;;
18983;SDS011;9626;52.552;13.436;2024-03-06T09:49:10;8.53;;;7.57;;
18983;SDS011;9626;52.552;13.436;2024-03-06T09:51:38;8.60;;;7.63;;
18983;SDS011;9626;52.552;13.436;2024-03-06T09:54:07;10.73;;;9.07;;
18983;SDS011;9626;52.552;13.436;2024-03-06T09:56:33;10.77;;;8.40;;
18983;SDS011;9626;52.552;13.436;2024-03-06T09:58:59;8.80;;;7.87;;
18983;SDS011;9626;52.552;13.436;2024-03-06T10:01:25;11.17;;;7.93;;
18983;SDS011;9626;52.552;13.436;2024-03-06T10:03:54;9.30;;;7.43;;
18983;SDS011;9626;52.552;13.436;2024-03-06T10:06:20;8.23;;;7.43;;
18983;SDS011;9626;52.552;13.436;2024-03-06T10:08:46;11.20;;;8.00;;
18983;SDS011;9626;52.552;13.436;2024-03-06T10:11:12;8.33;;;7.43;;
18983;SDS011;9626;52.552;13.436;2024-03-06T10:13:38;8.90;;;7.50;;
18983;SDS011;9626;52.552;13.436;2024-03-06T10:16:04;10.70;;;8.00;;
18983;SDS011;9626;52.552;13.436;2024-03-06T10:18:37;8.33;;;7.20;;
18983;SDS011;9626;52.552;13.436;2024-03-06T10:21:06;8.93;;;7.57;;
18983;SDS011;9626;52.552;13.436;2024-03-06T10:23:32;8.50;;;7.37;;
18983;SDS011;9626;52.552;13.436;2024-03-06T10:25:58;10.77;;;8.90;;
18983;SDS011;9626;52.552;13.436;2024-03-06T10:28:24;9.27;;;8.10;;
18983;SDS011;9626;52.552;13.436;2024-03-06T10:30:51;9.97;;;7.93;;
18983;SDS011;9626;52.552;13.436;2024-03-06T10:33:18;8.83;;;7.80;;
18983;SDS011;9626;52.552;13.436;2024-03-06T10:35:45;14.17;;;9.50;;
18983;SDS011;9626;52.552;13.436;2024-03-06T10:38:13;9.47;;;8.33;;
18983;SDS011;9626;52.552;13.436;2024-03-06T10:40:40;11.80;;;9.23;;
18983;SDS011;9626;52.552;13.436;2024-03-06T10:43:08;11.20;;;9.47;;
18983;SDS011;9626;52.552;13.436;2024-03-06T10:45:51;13.27;;;10.43;;
18983;SDS011;9626;52.552;13.436;2024-03-06T10:48:25;12.33;;;10.33;;
18983;SDS011;9626;52.552;13.436;2024-03-06T10:50:54;11.03;;;9.70;;
18983;SDS011;9626;52.552;13.436;2024-03-06T10:53:22;11.27;;;9.73;;
18983;SDS011;9626;52.552;13.436;2024-03-06T10:55:52;11.67;;;9.43;;
18983;SDS011;9626;52.552;13.436;2024-03-06T10:58:20;11.67;;;9.13;;
18983;SDS011;9626;52.552;13.436;2024-03-06T11:00:47;8.67;;;7.77;;
18983;SDS011;9626;52.552;13.436;2024-03-06T11:03:14;11.50;;;9.40;;
18983;SDS011;9626;52.552;13.436;2024-03-06T11:05:41;10.60;;;9.50;;
18983;SDS011;9626;52.552;13.436;2024-03-06T11:08:09;13.97;;;9.93;;
18983;SDS011;9626;52.552;13.436;2024-03-06T11:10:37;13.93;;;9.90;;
18983;SDS011;9626;52.552;13.436;2024-03-06T11:15:57;10.80;;;9.67;;
18983;SDS011;9626;52.552;13.436;2024-03-06T11:23:34;13.47;;;11.93;;
18983;SDS011;9626;52.552;13.436;2024-03-06T11:26:03;14.87;;;13.27;;
18983;SDS011;9626;52.552;13.436;2024-03-06T11:28:34;13.13;;;11.67;;
18983;SDS011;9626;52.552;13.436;2024-03-06T11:31:06;12.63;;;11.33;;
18983;SDS011;9626;52.552;13.436;2024-03-06T11:33:39;12.60;;;11.30;;
18983;SDS011;9626;52.552;13.436;2024-03-06T11:36:15;13.80;;;12.27;;
18983;SDS011;9626;52.552;13.436;2024-03-06T11:38:46;14.07;;;12.57;;
18983;SDS011;9626;52.552;13.436;2024-03-06T11:41:20;15.77;;;14.23;;
18983;SDS011;9626;52.552;13.436;2024-03-06T11:43:47;16.57;;;14.87;;
18983;SDS011;9626;52.552;13.436;2024-03-06T11:46:16;18.87;;;15.40;;
18983;SDS011;9626;52.552;13.436;2024-03-06T11:48:43;18.00;;;16.03;;
18983;SDS011;9626;52.552;13.436;2024-03-06T11:51:09;17.90;;;16.00;;
18983;SDS011;9626;52.552;13.436;2024-03-06T11:53:35;16.87;;;14.23;;
18983;SDS011;9626;52.552;13.436;2024-03-06T11:56:05;15.17;;;13.67;;
18983;SDS011;9626;52.552;13.436;2024-03-06T11:58:33;14.23;;;12.83;;
18983;SDS011;9626;52.552;13.436;2024-03-06T12:00:59;13.43;;;12.03;;
18983;SDS011;9626;52.552;13.436;2024-03-06T12:03:27;12.77;;;11.47;;
18983;SDS011;9626;52.552;13.436;2024-03-06T12:05:53;13.93;;;11.00;;
18983;SDS011;9626;52.552;13.436;2024-03-06T12:08:20;14.30;;;12.77;;
18983;SDS011;9626;52.552;13.436;2024-03-06T12:10:46;15.10;;;10.93;;
18983;SDS011;9626;52.552;13.436;2024-03-06T12:13:13;11.13;;;9.73;;
18983;SDS011;9626;52.552;13.436;2024-03-06T12:15:42;11.73;;;10.37;;
18983;SDS011;9626;52.552;13.436;2024-03-06T12:18:09;10.43;;;9.37;;
18983;SDS011;9626;52.552;13.436;2024-03-06T12:20:35;9.87;;;8.87;;
18983;SDS011;9626;52.552;13.436;2024-03-06T12:23:01;10.37;;;8.87;;
18983;SDS011;9626;52.552;13.436;2024-03-06T12:25:27;9.97;;;8.83;;
18983;SDS011;9626;52.552;13.436;2024-03-06T12:27:54;14.00;;;9.50;;
18983;SDS011;9626;52.552;13.436;2024-03-06T12:30:20;11.53;;;9.30;;
18983;SDS011;9626;52.552;13.436;2024-03-06T12:32:58;10.47;;;8.67;;
18983;SDS011;9626;52.552;13.436;2024-03-06T12:35:30;11.63;;;9.07;;
18983;SDS011;9626;52.552;13.436;2024-03-06T12:37:57;11.97;;;9.13;;
18983;SDS011;9626;52.552;13.436;2024-03-06T12:40:23;10.00;;;8.97;;
18983;SDS011;9626;52.552;13.436;2024-03-06T12:42:49;8.53;;;7.73;;
18983;SDS011;9626;52.552;13.436;2024-03-06T12:45:17;10.53;;;8.40;;
18983;SDS011;9626;52.552;13.436;2024-03-06T12:47:44;9.97;;;8.57;;
18983;SDS011;9626;52.552;13.436;2024-03-06T12:50:13;12.17;;;9.43;;
18983;SDS011;9626;52.552;13.436;2024-03-06T12:52:40;17.33;;;10.37;;
18983;SDS011;9626;52.552;13.436;2024-03-06T12:55:07;15.90;;;11.03;;
18983;SDS011;9626;52.552;13.436;2024-03-06T12:57:33;16.13;;;11.73;;
18983;SDS011;9626;52.552;13.436;2024-03-06T13:00:00;16.77;;;12.37;;
18983;SDS011;9626;52.552;13.436;2024-03-06T13:02:26;15.73;;;12.43;;
18983;SDS011;9626;52.552;13.436;2024-03-06T13:04:52;14.63;;;11.63;;
18983;SDS011;9626;52.552;13.436;2024-03-06T13:07:18;16.80;;;12.27;;
18983;SDS011;9626;52.552;13.436;2024-03-06T13:09:45;18.50;;;13.10;;
18983;SDS011;9626;52.552;13.436;2024-03-06T13:12:11;18.93;;;12.73;;
18983;SDS011;9626;52.552;13.436;2024-03-06T13:14:37;18.73;;;13.77;;
18983;SDS011;9626;52.552;13.436;2024-03-06T13:17:03;20.80;;;14.50;;
18983;SDS011;9626;52.552;13.436;2024-03-06T13:19:29;19.60;;;14.57;;
18983;SDS011;9626;52.552;13.436;2024-03-06T13:21:55;21.40;;;15.13;;
18983;SDS011;9626;52.552;13.436;2024-03-06T13:24:21;26.90;;;16.30;;
18983;SDS011;9626;52.552;13.436;2024-03-06T13:26:47;24.97;;;16.13;;
18983;SDS011;9626;52.552;13.436;2024-03-06T13:29:14;29.53;;;17.50;;
18983;SDS011;9626;52.552;13.436;2024-03-06T13:31:40;25.33;;;18.10;;
18983;SDS011;9626;52.552;13.436;2024-03-06T13:34:06;27.67;;;18.00;;
18983;SDS011;9626;52.552;13.436;2024-03-06T13:36:33;27.80;;;18.20;;
18983;SDS011;9626;52.552;13.436;2024-03-06T13:38:59;29.30;;;18.53;;
18983;SDS011;9626;52.552;13.436;2024-03-06T13:41:25;30.30;;;18.77;;
18983;SDS011;9626;52.552;13.436;2024-03-06T13:43:51;28.73;;;19.13;;
18983;SDS011;9626;52.552;13.436;2024-03-06T13:46:17;30.63;;;18.73;;
18983;SDS011;9626;52.552;13.436;2024-03-06T13:48:44;27.50;;;18.57;;
18983;SDS011;9626;52.552;13.436;2024-03-06T13:51:10;27.20;;;18.20;;
18983;SDS011;9626;52.552;13.436;2024-03-06T13:53:36;26.57;;;18.03;;
18983;SDS011;9626;52.552;13.436;2024-03-06T13:56:02;30.40;;;18.23;;
18983;SDS011;9626;52.552;13.436;2024-03-06T13:58:28;26.53;;;16.87;;
18983;SDS011;9626;52.552;13.436;2024-03-06T14:00:54;24.13;;;16.43;;
18983;SDS011;9626;52.552;13.436;2024-03-06T14:03:20;23.77;;;15.43;;
18983;SDS011;9626;52.552;13.436;2024-03-06T14:05:47;22.50;;;14.83;;
18983;SDS011;9626;52.552;13.436;2024-03-06T14:08:13;20.63;;;13.77;;
18983;SDS011;9626;52.552;13.436;2024-03-06T14:10:41;24.30;;;15.63;;
18983;SDS011;9626;52.552;13.436;2024-03-06T14:13:07;27.47;;;16.77;;
18983;SDS011;9626;52.552;13.436;2024-03-06T14:15:34;34.67;;;15.60;;
18983;SDS011;9626;52.552;13.436;2024-03-06T14:18:00;24.20;;;15.03;;
18983;SDS011;9626;52.552;13.436;2024-03-06T14:20:27;27.53;;;16.00;;
18983;SDS011;9626;52.552;13.436;2024-03-06T14:22:53;26.17;;;15.90;;
18983;SDS011;9626;52.552;13.436;2024-03-06T14:25:19;29.50;;;16.50;;
18983;SDS011;9626;52.552;13.436;2024-03-06T14:27:46;28.90;;;17.27;;
18983;SDS011;9626;52.552;13.436;2024-03-06T14:30:12;39.87;;;19.67;;
18983;SDS011;9626;52.552;13.436;2024-03-06T14:32:38;38.07;;;22.43;;